Time;durP1;ratioP1;P1;durP2;ratioP2;P2;SDS_P1;SDS_P2;PMS_P1;PMS_P2;Temp;Humidity;BMP_temperature;BMP_pressure;BME280_temperature;BME280_humidity;BME280_pressure;Samples;Min_cycle;Max_cycle;Signal;HPM_P1;HPM_P2
2023/09/19 00:03:52;;;;;;;16.40;13.10;;;;;;;18.34;72.19;99072.81;215974;1276;142119;-73
2023/09/19 00:08:58;;;;;;;13.50;12.10;;;;;;;18.43;72.14;99067.86;214841;1279;141579;-76
2023/09/19 00:14:04;;;;;;;16.50;12.00;;;;;;;18.49;71.88;99065.91;216104;1276;141317;-76
2023/09/19 00:19:08;;;;;;;14.10;12.10;;;;;;;18.53;71.76;99064.81;217269;1276;141004;-74
2023/09/19 00:24:13;;;;;;;19.60;12.00;;;;;;;18.58;71.76;99057.26;216446;1276;140148;-73
2023/09/19 00:29:17;;;;;;;18.20;12.80;;;;;;;18.64;71.53;99059.52;215406;1276;140739;-72
2023/09/19 00:34:23;;;;;;;13.70;11.90;;;;;;;18.70;71.34;99060.35;215877;1276;140407;-74
2023/09/19 00:39:27;;;;;;;17.70;12.80;;;;;;;18.75;71.17;99058.24;216219;1277;140520;-73
2023/09/19 00:44:31;;;;;;;12.80;10.30;;;;;;;18.79;71.08;99057.61;215309;1277;141795;-74
2023/09/19 00:49:35;;;;;;;10.80;9.70;;;;;;;18.82;70.92;99049.28;216005;1277;140617;-74
2023/09/19 00:54:39;;;;;;;14.30;12.60;;;;;;;18.85;70.91;99045.17;215291;1279;141205;-73
2023/09/19 00:59:42;;;;;;;14.60;12.20;;;;;;;18.86;70.76;99042.33;215069;1276;142581;-76
2023/09/19 01:04:45;;;;;;;13.00;11.30;;;;;;;18.90;70.73;99045.61;215036;1276;140313;-76
2023/09/19 01:09:47;;;;;;;16.40;13.50;;;;;;;18.92;70.66;99051.17;214716;1279;140477;-74
2023/09/19 01:15:01;;;;;;;16.00;13.30;;;;;;;18.95;70.64;99060.66;214734;1276;140551;-74
2023/09/19 01:20:07;;;;;;;13.70;12.20;;;;;;;18.98;70.58;99054.45;214783;1276;141459;-75
2023/09/19 01:25:20;;;;;;;20.50;12.70;;;;;;;19.00;70.47;99048.98;214583;1277;141020;-74
2023/09/19 01:30:32;;;;;;;14.90;13.40;;;;;;;19.02;70.30;99047.67;215433;1276;143409;-74
2023/09/19 01:35:38;;;;;;;17.10;13.40;;;;;;;19.05;70.34;99042.75;215563;1276;140447;-74
2023/09/19 01:40:48;;;;;;;15.40;13.80;;;;;;;19.05;70.59;99042.90;216029;1276;140312;-74
2023/09/19 01:46:04;;;;;;;17.10;13.70;;;;;;;19.00;70.59;99040.25;216395;1279;140372;-76
2023/09/19 01:51:14;;;;;;;13.90;12.30;;;;;;;18.93;70.62;99032.02;214888;1275;140241;-77
2023/09/19 01:56:28;;;;;;;16.30;14.20;;;;;;;18.82;70.80;99030.06;215354;1276;140732;-73
2023/09/19 02:01:31;;;;;;;14.80;12.80;;;;;;;18.66;70.99;99022.75;216320;1276;141895;-73
2023/09/19 02:06:34;;;;;;;15.70;13.20;;;;;;;18.49;71.11;99020.64;216969;1276;142288;-72
2023/09/19 02:11:38;;;;;;;16.80;14.00;;;;;;;18.41;71.49;99021.02;216414;1275;140687;-71
2023/09/19 02:16:41;;;;;;;14.30;12.80;;;;;;;18.41;71.87;99024.08;215939;1276;141634;-75
2023/09/19 02:21:44;;;;;;;17.80;14.90;;;;;;;18.36;71.75;99013.73;214820;1279;140563;-73
2023/09/19 02:26:48;;;;;;;20.10;13.70;;;;;;;18.30;71.82;99016.37;215953;1276;142128;-75
2023/09/19 02:31:55;;;;;;;16.60;13.40;;;;;;;18.20;71.95;99000.65;215885;1276;142467;-74
2023/09/19 02:37:00;;;;;;;15.50;12.60;;;;;;;18.15;72.16;99000.54;215113;1277;141675;-75
2023/09/19 02:42:04;;;;;;;15.70;14.10;;;;;;;18.10;72.44;99001.21;215672;1276;141348;-74
2023/09/19 02:47:08;;;;;;;14.30;13.00;;;;;;;18.09;72.48;98998.38;214878;1279;140863;-72
2023/09/19 02:52:14;;;;;;;16.30;13.40;;;;;;;18.04;72.78;99002.11;215567;1276;143379;-71
2023/09/19 02:57:19;;;;;;;18.00;13.60;;;;;;;18.01;72.87;98996.21;214997;1277;140315;-71
2023/09/19 03:02:24;;;;;;;14.30;12.40;;;;;;;17.95;72.93;98993.04;215202;1276;155399;-73
2023/09/19 03:07:31;;;;;;;15.90;13.90;;;;;;;17.88;73.15;98988.16;214901;1276;142873;-74
2023/09/19 03:12:34;;;;;;;22.60;14.20;;;;;;;17.83;73.20;98992.02;214888;1276;140499;-77
2023/09/19 03:17:37;;;;;;;15.90;14.30;;;;;;;17.83;73.39;98978.82;215007;1279;141686;-76
2023/09/19 03:22:41;;;;;;;16.70;14.10;;;;;;;17.83;73.42;98974.54;214968;1276;141525;-76
2023/09/19 03:27:46;;;;;;;17.40;14.00;;;;;;;17.81;73.39;98978.03;214717;1276;140749;-74
2023/09/19 03:32:49;;;;;;;16.10;13.90;;;;;;;17.79;73.61;98971.50;215050;1276;143721;-75
2023/09/19 03:37:53;;;;;;;17.00;12.70;;;;;;;17.79;73.74;98966.91;216894;1274;140798;-73
2023/09/19 03:43:00;;;;;;;14.50;13.00;;;;;;;17.79;73.62;98960.88;214634;1277;140741;-73
2023/09/19 03:48:14;;;;;;;14.10;12.30;;;;;;;17.81;73.77;98963.06;217071;1276;140574;-72
2023/09/19 03:53:18;;;;;;;16.40;14.50;;;;;;;17.80;73.77;98970.25;215225;1276;140861;-73
2023/09/19 03:58:21;;;;;;;18.90;13.80;;;;;;;17.81;73.80;98969.84;216072;1276;140394;-72
2023/09/19 04:03:34;;;;;;;18.70;13.80;;;;;;;17.81;73.85;98970.00;214666;1276;141285;-72
2023/09/19 04:08:38;;;;;;;15.80;14.30;;;;;;;17.83;73.98;98972.45;216416;1276;141118;-72
2023/09/19 04:13:41;;;;;;;15.90;13.40;;;;;;;17.84;74.05;98978.73;217217;1276;140905;-72
2023/09/19 04:18:45;;;;;;;15.50;13.90;;;;;;;17.89;74.31;98984.81;216608;1275;141406;-71
2023/09/19 04:23:48;;;;;;;16.20;14.30;;;;;;;17.91;74.43;98987.28;215462;1279;141067;-71
2023/09/19 04:28:51;;;;;;;19.50;15.60;;;;;;;17.94;74.71;98992.46;215824;1276;140489;-72
2023/09/19 04:33:53;;;;;;;12.60;11.40;;;;;;;17.96;74.74;98993.05;215004;1279;140754;-72
2023/09/19 04:38:57;;;;;;;15.40;13.90;;;;;;;17.99;74.81;98995.34;215279;1275;140300;-70
2023/09/19 04:44:00;;;;;;;16.00;14.00;;;;;;;18.01;74.78;99003.39;215136;1279;141301;-81
2023/09/19 04:49:04;;;;;;;16.30;13.20;;;;;;;18.05;74.82;99006.35;216886;1276;141560;-71
2023/09/19 04:54:07;;;;;;;34.00;16.40;;;;;;;18.07;74.88;99004.58;215771;1276;142224;-71
2023/09/19 04:59:11;;;;;;;18.50;14.10;;;;;;;18.13;74.98;99012.66;215092;1276;140885;-71
2023/09/19 05:04:14;;;;;;;18.30;14.20;;;;;;;18.13;75.15;99014.98;214805;1276;140900;-71
2023/09/19 05:09:19;;;;;;;14.60;13.10;;;;;;;18.12;75.40;99018.27;214956;1278;140824;-72
2023/09/19 05:14:23;;;;;;;17.60;12.90;;;;;;;18.14;75.71;99024.14;215262;1275;141078;-73
2023/09/19 05:19:28;;;;;;;16.10;11.50;;;;;;;18.16;75.97;99020.91;214937;1276;140101;-72
2023/09/19 05:24:31;;;;;;;19.80;12.80;;;;;;;18.16;76.39;99026.79;214971;1278;141150;-70
2023/09/19 05:29:34;;;;;;;12.70;11.40;;;;;;;18.11;76.88;99046.63;215510;1276;140826;-69
2023/09/19 05:34:38;;;;;;;13.30;11.40;;;;;;;18.00;77.32;99069.89;215283;1276;140730;-69
2023/09/19 05:39:43;;;;;;;14.00;11.00;;;;;;;17.91;78.07;99054.65;215350;1275;140103;-70
2023/09/19 05:44:47;;;;;;;11.00;8.90;;;;;;;17.85;78.58;99040.41;215648;1279;140300;-70
2023/09/19 05:49:52;;;;;;;10.70;8.90;;;;;;;17.82;79.23;99043.63;215883;1275;140771;-70
2023/09/19 05:54:57;;;;;;;12.10;9.10;;;;;;;17.82;79.60;99036.75;214956;1276;140313;-70
2023/09/19 06:00:08;;;;;;;9.60;7.80;;;;;;;17.80;80.00;99040.81;215485;1276;140099;-72
2023/09/19 06:05:11;;;;;;;8.90;6.90;;;;;;;17.78;80.43;99051.95;215945;1276;140122;-72
2023/09/19 06:10:15;;;;;;;12.30;7.70;;;;;;;17.77;80.79;99054.41;215295;1275;140827;-72
2023/09/19 06:15:20;;;;;;;10.20;7.00;;;;;;;17.77;81.21;99051.44;214985;1279;140696;-71
2023/09/19 06:20:28;;;;;;;8.20;5.20;;;;;;;17.76;81.44;99031.13;215558;1276;140764;-70
2023/09/19 06:25:31;;;;;;;;;;;;;;;17.74;81.97;99027.55;215623;1276;140458;-72
2023/09/19 06:30:36;;;;;;;7.10;5.10;;;;;;;17.71;82.27;99036.98;215506;1276;128207;-71
2023/09/19 06:35:41;;;;;;;5.60;5.00;;;;;;;17.73;82.64;99043.36;214539;1279;140109;-78
2023/09/19 06:40:45;;;;;;;8.50;4.40;;;;;;;17.79;82.91;99053.83;215246;1277;140300;-71
2023/09/19 06:45:51;;;;;;;6.30;3.50;;;;;;;17.87;83.25;99073.06;215790;1275;140993;-70
2023/09/19 06:50:58;;;;;;;7.80;4.00;;;;;;;17.93;83.30;99082.18;215202;1276;139699;-79
2023/09/19 06:56:02;;;;;;;5.00;4.20;;;;;;;17.96;83.60;99084.77;215336;1276;150985;-77
2023/09/19 07:01:06;;;;;;;4.20;3.90;;;;;;;17.97;83.62;99092.72;215231;1276;141203;-77
2023/09/19 07:06:12;;;;;;;5.60;3.60;;;;;;;17.95;84.03;99105.80;215478;1277;140929;-83
2023/09/19 07:11:15;;;;;;;4.40;4.10;;;;;;;17.96;84.31;99117.38;214846;1279;140615;-74
2023/09/19 07:16:29;;;;;;;5.10;3.80;;;;;;;18.01;84.52;99127.42;215116;1276;140702;-76
2023/09/19 07:21:35;;;;;;;5.00;3.00;;;;;;;18.10;84.91;99137.02;214944;1276;140402;-78
2023/09/19 07:26:39;;;;;;;7.10;3.60;;;;;;;18.17;85.01;99144.23;215189;1278;140856;-76
2023/09/19 07:31:44;;;;;;;3.60;3.30;;;;;;;18.26;85.22;99149.51;215766;1276;140853;-78
2023/09/19 07:36:48;;;;;;;5.20;3.50;;;;;;;18.35;85.39;99154.39;215468;1275;466812;-79
2023/09/19 07:41:54;;;;;;;3.90;3.50;;;;;;;18.38;85.37;99161.29;215328;1275;140215;-79
2023/09/19 07:46:58;;;;;;;4.70;2.90;;;;;;;18.46;85.46;99169.45;215212;1276;141488;-76
2023/09/19 07:52:02;;;;;;;8.40;4.50;;;;;;;18.53;85.58;99170.93;215270;1276;140711;-76
2023/09/19 07:57:05;;;;;;;3.60;2.90;;;;;;;18.62;85.74;99171.69;215635;1275;140307;-78
2023/09/19 08:02:15;;;;;;;8.20;4.40;;;;;;;18.75;85.76;99165.38;215481;1276;140173;-69
2023/09/19 08:07:19;;;;;;;6.70;3.90;;;;;;;18.90;85.97;99173.27;215103;1276;140260;-69
2023/09/19 08:12:23;;;;;;;5.00;3.80;;;;;;;19.15;86.16;99176.02;215604;1279;139786;-71
2023/09/19 08:17:26;;;;;;;10.70;4.70;;;;;;;19.48;86.26;99172.56;215049;1279;141629;-69
2023/09/19 08:22:31;;;;;;;6.20;4.00;;;;;;;19.84;86.29;99175.48;215036;1276;140792;-70
2023/09/19 08:27:36;;;;;;;4.10;3.10;;;;;;;20.13;85.82;99167.63;215189;1276;140769;-70
2023/09/19 08:32:40;;;;;;;4.90;4.40;;;;;;;20.38;85.24;99171.04;215139;1276;139834;-74
2023/09/19 08:37:46;;;;;;;5.60;4.90;;;;;;;20.54;84.85;99174.98;214988;1276;140613;-70
2023/09/19 08:42:53;;;;;;;9.50;4.90;;;;;;;20.61;84.04;99177.99;215028;1276;139954;-73
2023/09/19 08:48:16;;;;;;;6.60;4.30;;;;;;;20.63;83.63;99175.23;214751;1276;140158;-75
2023/09/19 08:53:42;;;;;;;5.80;5.00;;;;;;;20.58;83.00;99177.79;215645;1275;140307;-82
2023/09/19 08:59:03;;;;;;;5.80;5.40;;;;;;;20.48;83.01;99171.30;215184;1276;140065;-81
2023/09/19 09:04:12;;;;;;;8.60;6.80;;;;;;;20.54;83.09;99168.31;214955;1279;140664;-72
2023/09/19 09:09:18;;;;;;;8.60;7.00;;;;;;;20.78;82.92;99162.33;214817;1276;140224;-86
2023/09/19 09:14:24;;;;;;;9.60;6.50;;;;;;;21.00;82.81;99161.03;215000;1275;141221;-72
2023/09/19 09:19:30;;;;;;;10.10;7.00;;;;;;;21.16;82.50;99158.67;215458;1276;140051;-83
2023/09/19 09:24:38;;;;;;;7.30;6.80;;;;;;;21.30;82.15;99162.64;215497;1276;140545;-73
2023/09/19 09:29:48;;;;;;;9.40;7.20;;;;;;;21.31;81.61;99166.59;215254;1276;141747;-86
2023/09/19 09:34:53;;;;;;;6.50;5.80;;;;;;;21.33;81.51;99173.73;214948;1276;142119;-74
2023/09/19 09:56:08;;;;;;;7.80;7.20;;;;;;;21.34;80.48;99194.23;214886;1273;140366;-76
2023/09/19 10:01:15;;;;;;;8.70;7.00;;;;;;;21.31;80.37;99202.54;216184;1276;141410;-75
2023/09/19 10:06:28;;;;;;;10.40;7.60;;;;;;;21.27;80.43;99208.05;215931;1276;140138;-76
2023/09/19 10:11:32;;;;;;;8.80;7.00;;;;;;;21.28;80.18;99218.35;214962;1276;140252;-73
2023/09/19 10:16:41;;;;;;;7.70;6.80;;;;;;;21.24;79.99;99224.79;215159;1273;142199;-84
2023/09/19 10:21:50;;;;;;;9.90;6.80;;;;;;;21.18;79.85;99235.50;214763;1277;140103;-72
2023/09/19 10:26:57;;;;;;;7.90;6.90;;;;;;;21.09;79.77;99238.95;215164;1277;141959;-73
2023/09/19 10:32:05;;;;;;;8.20;7.40;;;;;;;20.98;79.72;99245.66;215212;1279;140796;-71
2023/09/19 10:37:13;;;;;;;6.20;5.70;;;;;;;20.79;79.68;99249.39;215575;1276;141367;-76
2023/09/19 10:42:20;;;;;;;6.40;5.80;;;;;;;20.70;79.82;99253.45;215235;1279;140707;-76
2023/09/19 10:47:25;;;;;;;7.30;6.60;;;;;;;20.70;80.12;99265.56;215036;1276;140122;-74
2023/09/19 10:52:29;;;;;;;6.70;6.00;;;;;;;20.68;80.25;99270.41;214617;1275;141418;-72
2023/09/19 10:57:34;;;;;;;5.70;5.30;;;;;;;20.61;80.09;99276.34;215582;1275;140280;-78
2023/09/19 11:02:38;;;;;;;5.30;5.00;;;;;;;20.49;79.90;99279.46;215282;1275;139919;-73
2023/09/19 11:08:04;;;;;;;5.70;5.30;;;;;;;20.31;79.73;99282.57;214909;1275;140248;-71
2023/09/19 11:13:37;;;;;;;6.60;6.00;;;;;;;20.27;80.00;99279.95;215677;1276;140244;-75
2023/09/19 11:18:41;;;;;;;6.00;5.30;;;;;;;20.47;80.34;99281.14;214940;1276;142144;-74
2023/09/19 11:24:36;;;;;;;5.80;5.40;;;;;;;20.68;80.18;99276.45;215436;1276;139636;-73
2023/09/19 11:29:41;;;;;;;5.40;5.00;;;;;;;20.87;79.74;99277.36;215198;1276;140833;-74
2023/09/19 11:34:50;;;;;;;7.20;5.30;;;;;;;20.98;79.55;99280.57;215451;1279;139965;-77
2023/09/19 11:40:19;;;;;;;6.50;4.40;;;;;;;21.07;79.08;99276.90;216097;1276;142487;-73
2023/09/19 11:45:50;;;;;;;5.00;4.20;;;;;;;21.20;78.81;99282.70;215321;1276;141582;-73
2023/09/19 11:50:54;;;;;;;4.00;3.70;;;;;;;21.30;78.11;99286.77;216454;1276;141226;-74
2023/09/19 11:56:00;;;;;;;8.00;4.10;;;;;;;21.39;77.71;99284.77;215309;1276;141282;-72
2023/09/19 12:01:08;;;;;;;8.10;7.20;;;;;;;21.40;77.22;99287.90;215269;1276;140145;-78
2023/09/19 12:06:14;;;;;;;6.00;4.60;;;;;;;21.32;76.89;99287.70;215533;1276;139836;-69
2023/09/19 12:11:18;;;;;;;7.90;7.30;;;;;;;21.31;76.64;99288.05;215294;1277;140912;-70
2023/09/19 12:16:24;;;;;;;4.00;3.70;;;;;;;21.37;76.52;99297.60;214833;1276;141392;-70
2023/09/19 12:21:32;;;;;;;4.60;4.20;;;;;;;21.43;76.42;99295.86;215425;1276;141017;-72
2023/09/19 12:26:45;;;;;;;5.50;2.80;;;;;;;21.47;75.97;99304.96;215000;1276;139909;-74
2023/09/19 12:32:03;;;;;;;2.30;2.10;;;;;;;21.42;75.22;99310.69;215385;1276;140121;-77
2023/09/19 12:37:29;;;;;;;2.30;2.20;;;;;;;21.43;74.33;99313.15;215305;1276;140232;-76
2023/09/19 12:42:35;;;;;;;5.50;2.20;;;;;;;21.59;73.67;99315.02;215510;1276;139862;-82
2023/09/19 12:47:40;;;;;;;2.70;2.40;;;;;;;21.93;73.26;99316.36;215588;1276;140040;-76
2023/09/19 12:52:49;;;;;;;2.40;2.20;;;;;;;22.15;72.63;99319.21;214912;1279;140585;-73
2023/09/19 12:58:07;;;;;;;4.30;2.60;;;;;;;22.28;71.80;99323.46;215017;1276;140155;-74
2023/09/19 13:03:21;;;;;;;3.00;2.10;;;;;;;22.44;71.31;99327.02;214886;1276;141477;-74
2023/09/19 13:08:32;;;;;;;2.00;1.80;;;;;;;22.68;70.81;99322.86;215822;1276;142023;-72
2023/09/19 13:13:41;;;;;;;2.50;2.30;;;;;;;22.93;70.48;99315.39;215166;1276;139884;-72
2023/09/19 13:18:56;;;;;;;2.20;2.00;;;;;;;23.05;69.86;99321.95;214660;1276;141038;-72
2023/09/19 13:24:20;;;;;;;2.00;1.90;;;;;;;23.05;68.93;99321.41;215049;1279;140763;-73
2023/09/19 13:29:23;;;;;;;46.30;5.60;;;;;;;23.24;68.85;99317.28;215505;1275;140329;-71
2023/09/19 13:34:29;;;;;;;1.80;1.70;;;;;;;23.35;67.21;99321.83;215296;1276;140700;-70
2023/09/19 13:39:35;;;;;;;3.20;2.10;;;;;;;23.32;65.88;99317.87;215727;1276;140287;-73
2023/09/19 13:44:41;;;;;;;;;;;;;;;23.17;65.05;99322.18;214639;1276;140081;-71
2023/09/19 13:49:48;;;;;;;1.90;1.80;;;;;;;23.02;64.91;99320.11;214898;1277;127602;-71
2023/09/19 13:55:01;;;;;;;2.40;1.90;;;;;;;23.00;64.79;99323.54;217018;1276;141390;-73
2023/09/19 14:00:10;;;;;;;7.10;1.80;;;;;;;23.01;64.10;99319.28;215778;1279;140017;-72
2023/09/19 14:05:16;;;;;;;2.30;2.00;;;;;;;22.84;62.82;99320.42;215671;1275;142326;-73
2023/09/19 14:10:20;;;;;;;3.70;1.80;;;;;;;22.70;62.38;99325.98;214709;1276;139858;-73
2023/09/19 14:15:29;;;;;;;5.50;1.70;;;;;;;22.70;62.41;99327.77;214704;1277;140055;-75
2023/09/19 14:20:33;;;;;;;5.00;2.10;;;;;;;22.70;62.03;99324.59;214939;1279;139468;-76
2023/09/19 14:25:38;;;;;;;1.90;1.80;;;;;;;22.64;61.70;99324.25;215488;1278;140774;-76
2023/09/19 14:30:41;;;;;;;3.60;1.80;;;;;;;22.56;61.08;99323.55;215968;1276;140275;-72
2023/09/19 14:35:44;;;;;;;5.60;1.70;;;;;;;22.55;61.03;99326.91;215514;1276;150029;-78
2023/09/19 14:40:49;;;;;;;2.10;1.70;;;;;;;22.59;61.04;99329.02;214773;1277;139436;-72
2023/09/19 14:45:54;;;;;;;1.90;1.40;;;;;;;22.55;60.85;99330.98;214819;1279;141101;-76
2023/09/19 14:51:05;;;;;;;3.40;1.90;;;;;;;22.47;60.56;99335.58;214978;1276;139721;-74
2023/09/19 14:56:11;;;;;;;2.60;1.20;;;;;;;22.35;59.98;99337.99;215090;1277;139766;-75
2023/09/19 15:01:15;;;;;;;1.70;1.60;;;;;;;22.21;59.45;99340.84;215052;1276;139280;-72
2023/09/19 15:06:20;;;;;;;3.10;1.40;;;;;;;22.13;59.57;99341.86;215938;1276;140308;-70
2023/09/19 15:11:28;;;;;;;2.40;1.70;;;;;;;22.09;59.49;99341.31;215641;1276;139343;-70
2023/09/19 15:16:32;;;;;;;1.60;1.30;;;;;;;22.01;59.69;99349.68;215077;1279;140185;-70
2023/09/19 15:21:35;;;;;;;1.80;1.70;;;;;;;21.94;59.89;99354.01;215346;1279;139155;-70
2023/09/19 15:26:43;;;;;;;2.80;2.10;;;;;;;21.86;59.59;99351.00;215642;1279;140104;-68
2023/09/19 15:31:50;;;;;;;1.50;1.40;;;;;;;21.78;59.64;99351.71;216183;1276;140019;-69
2023/09/19 15:36:53;;;;;;;6.20;1.70;;;;;;;21.69;59.49;99355.52;215617;1279;140266;-69
2023/09/19 15:41:57;;;;;;;1.90;1.60;;;;;;;21.60;59.72;99358.35;215900;1277;140514;-75
2023/09/19 15:47:00;;;;;;;2.70;1.60;;;;;;;21.55;59.80;99362.89;215354;1279;141033;-74
2023/09/19 15:52:05;;;;;;;1.70;1.60;;;;;;;21.47;59.78;99369.12;216121;1277;139097;-75
2023/09/19 15:57:12;;;;;;;3.80;1.80;;;;;;;21.30;59.67;99372.79;216535;1276;139203;-77
2023/09/19 16:02:17;;;;;;;2.20;1.50;;;;;;;21.09;59.85;99377.96;215450;1277;139184;-75
2023/09/19 16:07:22;;;;;;;3.00;1.90;;;;;;;20.86;60.12;99383.15;215927;1276;139659;-78
2023/09/19 16:12:28;;;;;;;5.80;2.20;;;;;;;20.63;60.49;99391.88;214979;1276;139423;-69
2023/09/19 16:17:31;;;;;;;7.50;1.90;;;;;;;20.37;61.14;99394.34;215368;1276;139480;-70
2023/09/19 16:22:34;;;;;;;3.40;2.20;;;;;;;20.08;61.90;99401.31;214995;1276;139516;-70
2023/09/19 16:27:37;;;;;;;10.70;1.90;;;;;;;19.81;62.65;99405.55;214783;1277;139665;-68
2023/09/19 16:32:40;;;;;;;6.60;2.10;;;;;;;19.52;63.40;99407.28;215004;1276;140699;-68
2023/09/19 16:37:44;;;;;;;2.20;2.00;;;;;;;19.21;64.37;99411.22;214646;1279;140321;-68
2023/09/19 16:42:48;;;;;;;18.40;2.60;;;;;;;18.89;65.19;99414.88;215295;1276;144353;-68
2023/09/19 16:47:51;;;;;;;9.00;2.50;;;;;;;18.70;66.43;99418.99;215122;1279;141265;-68
2023/09/19 16:52:54;;;;;;;2.60;2.00;;;;;;;18.53;67.26;99418.29;215332;1277;140533;-68
2023/09/19 16:57:59;;;;;;;8.00;2.70;;;;;;;18.38;67.95;99422.67;214692;1279;140745;-68
2023/09/19 17:03:04;;;;;;;4.90;2.50;;;;;;;18.23;68.32;99426.79;215889;1277;140452;-69
2023/09/19 17:08:08;;;;;;;2.00;1.90;;;;;;;17.99;68.55;99433.70;214999;1276;140481;-69
2023/09/19 17:13:12;;;;;;;1.80;1.50;;;;;;;17.82;69.14;99436.69;214832;1276;140908;-69
2023/09/19 17:18:15;;;;;;;1.90;1.70;;;;;;;17.58;69.59;99443.33;215261;1279;140780;-69
2023/09/19 17:23:19;;;;;;;2.80;2.30;;;;;;;17.47;70.55;99450.50;215031;1279;140240;-69
2023/09/19 17:28:24;;;;;;;4.90;2.60;;;;;;;17.38;71.07;99457.40;215113;1277;140664;-69
2023/09/19 17:33:29;;;;;;;2.30;2.00;;;;;;;17.25;71.40;99461.34;214895;1279;141128;-69
2023/09/19 17:38:35;;;;;;;2.50;2.40;;;;;;;17.04;71.69;99466.03;217285;1275;140436;-71
2023/09/19 17:43:38;;;;;;;1.90;1.80;;;;;;;16.86;72.04;99476.09;216145;1276;140936;-69
2023/09/19 17:48:47;;;;;;;4.90;2.30;;;;;;;16.76;72.30;99478.93;214897;1276;235462;-73
2023/09/19 17:53:58;;;;;;;2.50;2.30;;;;;;;16.66;72.43;99486.42;214890;1279;139912;-82
2023/09/19 17:59:10;;;;;;;3.70;2.10;;;;;;;16.50;72.51;99490.66;214814;1279;140517;-74
2023/09/19 18:04:15;;;;;;;2.70;2.50;;;;;;;16.33;72.69;99495.87;214830;1279;142248;-75
2023/09/19 18:09:22;;;;;;;1.80;1.70;;;;;;;16.19;72.98;99494.61;215378;1277;141150;-73
2023/09/19 18:14:26;;;;;;;3.00;2.20;;;;;;;16.08;73.34;99496.92;215072;1279;140008;-73
2023/09/19 18:19:28;;;;;;;2.90;2.70;;;;;;;15.97;73.58;99506.33;215031;1279;141041;-79
2023/09/19 18:24:32;;;;;;;2.00;1.90;;;;;;;15.79;73.46;99511.61;214665;1280;141818;-81
2023/09/19 18:29:35;;;;;;;2.50;2.30;;;;;;;15.59;73.58;99511.61;214784;1279;140113;-78
2023/09/19 18:34:38;;;;;;;2.80;2.40;;;;;;;15.46;73.86;99520.44;214690;1278;140515;-81
2023/09/19 18:39:42;;;;;;;2.30;1.60;;;;;;;15.26;73.91;99517.73;214864;1276;140512;-76
2023/09/19 18:44:46;;;;;;;2.60;2.20;;;;;;;15.05;74.03;99524.02;214582;1278;140050;-72
2023/09/19 18:49:49;;;;;;;2.00;1.90;;;;;;;14.85;74.52;99526.81;215659;1279;140724;-69
2023/09/19 18:54:52;;;;;;;4.00;2.10;;;;;;;14.67;74.72;99525.73;215599;1279;140413;-74
2023/09/19 18:59:55;;;;;;;5.10;2.50;;;;;;;14.51;75.05;99526.71;214808;1280;140336;-69
2023/09/19 19:04:58;;;;;;;4.40;2.10;;;;;;;14.39;75.18;99532.41;214787;1277;162249;-69
2023/09/19 19:10:07;;;;;;;2.90;2.70;;;;;;;14.27;75.69;99536.77;216118;1276;140153;-71
2023/09/19 19:15:16;;;;;;;3.10;2.70;;;;;;;14.22;75.90;99539.31;215295;1277;249221;-69
2023/09/19 19:20:23;;;;;;;3.70;2.30;;;;;;;14.15;75.91;99537.41;215226;1279;140612;-69
2023/09/19 19:25:28;;;;;;;3.30;3.00;;;;;;;14.04;76.17;99534.80;214883;1279;139805;-70
2023/09/19 19:30:32;;;;;;;12.10;2.60;;;;;;;13.97;76.24;99537.45;216319;1277;140650;-70
2023/09/19 19:35:40;;;;;;;3.00;2.10;;;;;;;13.88;76.41;99538.75;215832;1276;336795;-73
2023/09/19 19:40:44;;;;;;;6.20;3.10;;;;;;;13.79;76.58;99540.09;215908;1276;140946;-81
2023/09/19 19:46:17;;;;;;;4.70;2.60;;;;;;;13.74;76.68;99543.02;216178;1276;141086;-81
2023/09/19 19:51:20;;;;;;;4.00;2.80;;;;;;;13.66;76.71;99546.41;214936;1279;142497;-81
2023/09/19 19:56:23;;;;;;;3.40;3.10;;;;;;;13.60;76.75;99552.25;214438;1280;140467;-70
2023/09/19 20:01:27;;;;;;;2.80;2.60;;;;;;;13.54;76.98;99555.70;214280;1280;140603;-72
2023/09/19 20:06:32;;;;;;;4.20;3.40;;;;;;;13.47;77.27;99556.52;214195;1282;140124;-81
2023/09/19 20:11:38;;;;;;;7.30;2.80;;;;;;;13.41;77.26;99559.92;214008;1280;140855;-70
2023/09/19 20:16:45;;;;;;;3.40;3.20;;;;;;;13.29;77.17;99566.19;214262;1281;139664;-73
2023/09/19 20:21:49;;;;;;;3.30;3.00;;;;;;;13.16;77.22;99566.77;214361;1276;140675;-72
2023/09/19 20:26:56;;;;;;;6.30;3.50;;;;;;;13.00;77.48;99565.08;215508;1276;139981;-70
2023/09/19 20:32:01;;;;;;;2.50;2.30;;;;;;;12.91;77.50;99567.27;215230;1276;141428;-73
2023/09/19 20:37:06;;;;;;;10.40;3.20;;;;;;;12.77;77.91;99578.08;214994;1279;139779;-69
2023/09/19 20:42:10;;;;;;;8.80;2.80;;;;;;;12.67;78.20;99579.95;215063;1277;140376;-69
2023/09/19 20:47:14;;;;;;;3.10;2.40;;;;;;;12.62;78.41;99582.02;214985;1276;140909;-71
2023/09/19 20:52:19;;;;;;;6.20;3.90;;;;;;;12.55;78.77;99583.73;215256;1276;141956;-70
2023/09/19 20:57:24;;;;;;;3.60;3.30;;;;;;;12.50;78.96;99590.16;215018;1275;141622;-72
2023/09/19 21:02:28;;;;;;;7.60;3.80;;;;;;;12.45;78.89;99592.73;216360;1276;140692;-72
2023/09/19 21:07:32;;;;;;;4.30;3.20;;;;;;;12.38;78.93;99599.31;214919;1279;139726;-72
2023/09/19 21:12:36;;;;;;;4.50;4.10;;;;;;;12.34;79.28;99601.73;215079;1276;140673;-70
2023/09/19 21:17:42;;;;;;;3.80;3.40;;;;;;;12.31;79.30;99601.63;215614;1279;140999;-80
2023/09/19 21:22:47;;;;;;;3.50;3.30;;;;;;;12.31;79.73;99606.70;215675;1276;141521;-74
2023/09/19 21:27:52;;;;;;;6.40;3.90;;;;;;;12.30;79.78;99616.48;215378;1279;141547;-72
2023/09/19 21:32:55;;;;;;;3.70;3.40;;;;;;;12.30;80.06;99616.31;216365;1276;140132;-74
2023/09/19 21:37:59;;;;;;;4.30;3.90;;;;;;;12.26;79.80;99624.61;215062;1276;139712;-68
2023/09/19 21:43:05;;;;;;;9.00;3.90;;;;;;;12.20;79.92;99624.45;216726;1276;140882;-73
2023/09/19 21:48:10;;;;;;;11.80;3.80;;;;;;;12.18;80.15;99622.91;216687;1275;140589;-72
2023/09/19 21:53:15;;;;;;;7.30;4.60;;;;;;;12.13;79.99;99617.66;215735;1276;140349;-69
2023/09/19 21:58:21;;;;;;;5.90;5.40;;;;;;;12.06;79.80;99620.71;215057;1279;139891;-76
2023/09/19 22:03:36;;;;;;;4.60;4.10;;;;;;;11.99;80.08;99618.11;214951;1279;139588;-77
2023/09/19 22:08:41;;;;;;;4.50;4.10;;;;;;;11.95;80.35;99614.52;214792;1275;140381;-77
2023/09/19 22:13:47;;;;;;;7.60;4.70;;;;;;;11.86;80.23;99617.36;214981;1277;140078;-80
2023/09/19 22:18:52;;;;;;;6.20;4.10;;;;;;;11.79;80.59;99612.18;215172;1276;140534;-80
2023/09/19 22:23:54;;;;;;;5.20;4.70;;;;;;;11.74;80.23;99611.98;215151;1276;140590;-79
2023/09/19 22:28:57;;;;;;;7.70;4.40;;;;;;;11.63;80.55;99615.05;214876;1279;140262;-80
2023/09/19 22:34:01;;;;;;;5.60;4.60;;;;;;;11.59;81.05;99612.88;215002;1276;140179;-79
2023/09/19 22:39:04;;;;;;;5.50;5.00;;;;;;;11.59;80.99;99605.92;215491;1276;140683;-75
2023/09/19 22:44:10;;;;;;;5.00;4.40;;;;;;;11.60;81.44;99600.39;215396;1276;140374;-79
2023/09/19 22:49:18;;;;;;;5.90;5.10;;;;;;;11.60;81.31;99601.79;215354;1279;139858;-78
2023/09/19 22:54:27;;;;;;;5.40;4.90;;;;;;;11.59;81.46;99600.70;214815;1276;140239;-80
2023/09/19 22:59:35;;;;;;;10.50;6.30;;;;;;;11.55;81.27;99598.66;215814;1276;140484;-78
2023/09/19 23:04:45;;;;;;;6.90;4.70;;;;;;;11.50;81.40;99598.05;215463;1275;141909;-79
2023/09/19 23:09:50;;;;;;;7.50;6.80;;;;;;;11.45;81.45;99597.80;215060;1277;231412;-77
2023/09/19 23:14:54;;;;;;;10.70;5.70;;;;;;;11.40;81.81;99600.40;215393;1276;139803;-77
2023/09/19 23:19:59;;;;;;;9.00;6.10;;;;;;;11.38;81.80;99605.91;215944;1276;140048;-77
2023/09/19 23:25:27;;;;;;;7.50;5.80;;;;;;;11.31;81.65;99607.98;215030;1277;140792;-74
2023/09/19 23:30:32;;;;;;;6.80;6.10;;;;;;;11.28;81.90;99608.77;215222;1276;139954;-76
2023/09/19 23:35:37;;;;;;;8.30;5.90;;;;;;;11.27;81.98;99608.23;214941;1279;141171;-74
2023/09/19 23:40:40;;;;;;;6.80;6.10;;;;;;;11.22;82.01;99609.04;215545;1275;140179;-76